sensor_id;sensor_type;location;lat;lon;timestamp;temperature;humidity
58933;DHT22;44716;51.022;6.818;2024-02-23T00:01:13;21.00;58.60
58933;DHT22;44716;51.022;6.818;2024-02-23T00:03:39;21.00;58.50
58933;DHT22;44716;51.022;6.818;2024-02-23T00:06:04;20.90;58.60
58933;DHT22;44716;51.022;6.818;2024-02-23T00:08:30;20.90;58.50
58933;DHT22;44716;51.022;6.818;2024-02-23T00:10:56;20.90;58.80
58933;DHT22;44716;51.022;6.818;2024-02-23T00:13:21;20.90;58.50
58933;DHT22;44716;51.022;6.818;2024-02-23T00:15:47;20.80;58.50
58933;DHT22;44716;51.022;6.818;2024-02-23T00:18:12;20.80;58.80
58933;DHT22;44716;51.022;6.818;2024-02-23T00:20:40;20.80;58.80
58933;DHT22;44716;51.022;6.818;2024-02-23T00:23:05;20.80;59.00
58933;DHT22;44716;51.022;6.818;2024-02-23T00:25:31;20.80;59.00
58933;DHT22;44716;51.022;6.818;2024-02-23T00:27:56;20.80;59.00
58933;DHT22;44716;51.022;6.818;2024-02-23T00:30:22;20.70;59.10
58933;DHT22;44716;51.022;6.818;2024-02-23T00:32:47;20.70;59.20
58933;DHT22;44716;51.022;6.818;2024-02-23T00:35:12;20.70;59.10
58933;DHT22;44716;51.022;6.818;2024-02-23T00:37:38;20.70;59.20
58933;DHT22;44716;51.022;6.818;2024-02-23T00:40:04;20.70;59.20
58933;DHT22;44716;51.022;6.818;2024-02-23T00:42:30;20.60;59.20
58933;DHT22;44716;51.022;6.818;2024-02-23T00:44:56;20.60;59.30
58933;DHT22;44716;51.022;6.818;2024-02-23T00:47:21;20.60;59.20
58933;DHT22;44716;51.022;6.818;2024-02-23T00:49:47;20.60;59.20
58933;DHT22;44716;51.022;6.818;2024-02-23T00:52:12;20.50;59.20
58933;DHT22;44716;51.022;6.818;2024-02-23T00:54:38;20.50;59.40
58933;DHT22;44716;51.022;6.818;2024-02-23T00:57:03;20.50;59.50
58933;DHT22;44716;51.022;6.818;2024-02-23T00:59:29;20.50;60.20
58933;DHT22;44716;51.022;6.818;2024-02-23T01:01:54;20.50;59.60
58933;DHT22;44716;51.022;6.818;2024-02-23T01:04:20;20.50;59.50
58933;DHT22;44716;51.022;6.818;2024-02-23T01:06:46;20.50;59.50
58933;DHT22;44716;51.022;6.818;2024-02-23T01:09:11;20.50;59.60
58933;DHT22;44716;51.022;6.818;2024-02-23T01:11:37;20.50;59.40
58933;DHT22;44716;51.022;6.818;2024-02-23T01:14:03;20.40;59.40
58933;DHT22;44716;51.022;6.818;2024-02-23T01:16:28;20.40;59.50
58933;DHT22;44716;51.022;6.818;2024-02-23T01:18:54;20.40;59.30
58933;DHT22;44716;51.022;6.818;2024-02-23T01:21:19;20.40;59.60
58933;DHT22;44716;51.022;6.818;2024-02-23T01:23:45;20.40;59.60
58933;DHT22;44716;51.022;6.818;2024-02-23T01:26:10;20.40;59.70
58933;DHT22;44716;51.022;6.818;2024-02-23T01:28:36;20.40;59.80
58933;DHT22;44716;51.022;6.818;2024-02-23T01:31:01;20.40;59.80
58933;DHT22;44716;51.022;6.818;2024-02-23T01:33:27;20.40;59.90
58933;DHT22;44716;51.022;6.818;2024-02-23T01:35:53;20.40;59.90
58933;DHT22;44716;51.022;6.818;2024-02-23T01:38:18;20.30;59.90
58933;DHT22;44716;51.022;6.818;2024-02-23T01:40:47;20.30;60.00
58933;DHT22;44716;51.022;6.818;2024-02-23T01:43:13;20.30;60.80
58933;DHT22;44716;51.022;6.818;2024-02-23T01:45:39;20.30;60.10
58933;DHT22;44716;51.022;6.818;2024-02-23T01:48:04;20.30;60.20
58933;DHT22;44716;51.022;6.818;2024-02-23T01:50:30;20.30;60.20
58933;DHT22;44716;51.022;6.818;2024-02-23T01:52:57;20.30;60.20
58933;DHT22;44716;51.022;6.818;2024-02-23T01:55:24;20.30;60.40
58933;DHT22;44716;51.022;6.818;2024-02-23T01:57:49;20.30;60.30
58933;DHT22;44716;51.022;6.818;2024-02-23T02:00:15;20.20;60.30
58933;DHT22;44716;51.022;6.818;2024-02-23T02:02:42;20.20;60.50
58933;DHT22;44716;51.022;6.818;2024-02-23T02:05:08;20.20;60.50
58933;DHT22;44716;51.022;6.818;2024-02-23T02:07:34;20.20;60.60
58933;DHT22;44716;51.022;6.818;2024-02-23T02:09:59;20.20;60.60
58933;DHT22;44716;51.022;6.818;2024-02-23T02:12:28;20.20;60.60
58933;DHT22;44716;51.022;6.818;2024-02-23T02:14:54;20.20;60.70
58933;DHT22;44716;51.022;6.818;2024-02-23T02:17:21;20.20;60.60
58933;DHT22;44716;51.022;6.818;2024-02-23T02:19:50;20.20;60.70
58933;DHT22;44716;51.022;6.818;2024-02-23T02:22:16;20.20;60.70
58933;DHT22;44716;51.022;6.818;2024-02-23T02:24:41;20.20;60.80
58933;DHT22;44716;51.022;6.818;2024-02-23T02:27:09;20.20;60.80
58933;DHT22;44716;51.022;6.818;2024-02-23T02:29:37;20.20;60.80
58933;DHT22;44716;51.022;6.818;2024-02-23T02:32:03;20.10;60.80
58933;DHT22;44716;51.022;6.818;2024-02-23T02:34:29;20.10;60.80
58933;DHT22;44716;51.022;6.818;2024-02-23T02:36:54;20.10;60.80
58933;DHT22;44716;51.022;6.818;2024-02-23T02:39:20;20.10;60.80
58933;DHT22;44716;51.022;6.818;2024-02-23T02:41:47;20.10;60.80
58933;DHT22;44716;51.022;6.818;2024-02-23T02:44:13;20.10;60.70
58933;DHT22;44716;51.022;6.818;2024-02-23T02:46:39;20.10;60.80
58933;DHT22;44716;51.022;6.818;2024-02-23T02:49:04;20.10;60.70
58933;DHT22;44716;51.022;6.818;2024-02-23T02:51:30;20.10;60.80
58933;DHT22;44716;51.022;6.818;2024-02-23T02:53:55;20.10;60.80
58933;DHT22;44716;51.022;6.818;2024-02-23T02:56:21;20.10;60.80
58933;DHT22;44716;51.022;6.818;2024-02-23T02:58:46;20.10;60.80
58933;DHT22;44716;51.022;6.818;2024-02-23T03:01:12;20.10;61.00
58933;DHT22;44716;51.022;6.818;2024-02-23T03:03:37;20.00;60.90
58933;DHT22;44716;51.022;6.818;2024-02-23T03:06:03;20.10;61.00
58933;DHT22;44716;51.022;6.818;2024-02-23T03:08:28;20.00;61.00
58933;DHT22;44716;51.022;6.818;2024-02-23T03:10:54;20.00;61.10
58933;DHT22;44716;51.022;6.818;2024-02-23T03:13:19;20.00;61.10
58933;DHT22;44716;51.022;6.818;2024-02-23T03:15:45;20.00;61.10
58933;DHT22;44716;51.022;6.818;2024-02-23T03:18:10;20.00;61.20
58933;DHT22;44716;51.022;6.818;2024-02-23T03:20:36;20.00;61.20
58933;DHT22;44716;51.022;6.818;2024-02-23T03:23:01;20.00;61.10
58933;DHT22;44716;51.022;6.818;2024-02-23T03:25:29;20.00;61.10
58933;DHT22;44716;51.022;6.818;2024-02-23T03:27:54;20.00;61.00
58933;DHT22;44716;51.022;6.818;2024-02-23T03:30:20;20.00;61.00
58933;DHT22;44716;51.022;6.818;2024-02-23T03:32:45;20.00;61.20
58933;DHT22;44716;51.022;6.818;2024-02-23T03:35:12;20.00;61.20
58933;DHT22;44716;51.022;6.818;2024-02-23T03:37:38;20.00;61.20
58933;DHT22;44716;51.022;6.818;2024-02-23T03:40:04;20.00;61.20
58933;DHT22;44716;51.022;6.818;2024-02-23T03:42:30;20.00;61.20
58933;DHT22;44716;51.022;6.818;2024-02-23T03:44:56;20.00;61.20
58933;DHT22;44716;51.022;6.818;2024-02-23T03:47:21;20.00;61.10
58933;DHT22;44716;51.022;6.818;2024-02-23T03:49:47;19.90;61.20
58933;DHT22;44716;51.022;6.818;2024-02-23T03:52:12;19.90;61.20
58933;DHT22;44716;51.022;6.818;2024-02-23T03:54:37;19.90;61.20
58933;DHT22;44716;51.022;6.818;2024-02-23T03:57:03;19.90;61.30
58933;DHT22;44716;51.022;6.818;2024-02-23T03:59:29;20.00;61.40
58933;DHT22;44716;51.022;6.818;2024-02-23T04:01:54;20.00;61.20
58933;DHT22;44716;51.022;6.818;2024-02-23T04:04:20;20.00;61.20
58933;DHT22;44716;51.022;6.818;2024-02-23T04:06:46;20.00;61.20
58933;DHT22;44716;51.022;6.818;2024-02-23T04:09:11;20.00;61.20
58933;DHT22;44716;51.022;6.818;2024-02-23T04:11:37;20.00;61.20
58933;DHT22;44716;51.022;6.818;2024-02-23T04:14:02;19.90;61.20
58933;DHT22;44716;51.022;6.818;2024-02-23T04:16:30;19.90;61.20
58933;DHT22;44716;51.022;6.818;2024-02-23T04:18:56;19.90;61.20
58933;DHT22;44716;51.022;6.818;2024-02-23T04:21:21;19.90;61.20
58933;DHT22;44716;51.022;6.818;2024-02-23T04:23:47;19.90;61.30
58933;DHT22;44716;51.022;6.818;2024-02-23T04:26:13;19.90;61.40
58933;DHT22;44716;51.022;6.818;2024-02-23T04:28:41;19.90;61.40
58933;DHT22;44716;51.022;6.818;2024-02-23T04:31:08;19.90;61.50
58933;DHT22;44716;51.022;6.818;2024-02-23T04:33:34;19.90;61.40
58933;DHT22;44716;51.022;6.818;2024-02-23T04:36:00;19.90;61.50
58933;DHT22;44716;51.022;6.818;2024-02-23T04:38:25;19.90;61.50
58933;DHT22;44716;51.022;6.818;2024-02-23T04:40:51;19.90;61.40
58933;DHT22;44716;51.022;6.818;2024-02-23T04:43:16;19.90;61.40
58933;DHT22;44716;51.022;6.818;2024-02-23T04:45:41;19.90;61.40
58933;DHT22;44716;51.022;6.818;2024-02-23T04:48:07;19.90;61.50
58933;DHT22;44716;51.022;6.818;2024-02-23T04:50:33;19.90;61.60
58933;DHT22;44716;51.022;6.818;2024-02-23T04:52:58;19.90;61.60
58933;DHT22;44716;51.022;6.818;2024-02-23T04:55:24;19.90;61.60
58933;DHT22;44716;51.022;6.818;2024-02-23T04:57:49;19.90;61.60
58933;DHT22;44716;51.022;6.818;2024-02-23T05:00:15;19.90;61.60
58933;DHT22;44716;51.022;6.818;2024-02-23T05:02:40;19.80;61.60
58933;DHT22;44716;51.022;6.818;2024-02-23T05:05:06;19.80;61.60
58933;DHT22;44716;51.022;6.818;2024-02-23T05:07:31;19.80;61.60
58933;DHT22;44716;51.022;6.818;2024-02-23T05:09:57;19.80;61.70
58933;DHT22;44716;51.022;6.818;2024-02-23T05:12:23;19.80;61.60
58933;DHT22;44716;51.022;6.818;2024-02-23T05:14:49;19.90;61.40
58933;DHT22;44716;51.022;6.818;2024-02-23T05:17:14;19.90;61.30
58933;DHT22;44716;51.022;6.818;2024-02-23T05:19:39;20.00;61.20
58933;DHT22;44716;51.022;6.818;2024-02-23T05:22:05;20.00;61.10
58933;DHT22;44716;51.022;6.818;2024-02-23T05:24:30;20.00;61.00
58933;DHT22;44716;51.022;6.818;2024-02-23T05:26:56;20.00;61.00
58933;DHT22;44716;51.022;6.818;2024-02-23T05:29:23;20.00;60.90
58933;DHT22;44716;51.022;6.818;2024-02-23T05:31:50;20.00;60.90
58933;DHT22;44716;51.022;6.818;2024-02-23T05:34:16;20.00;61.00
58933;DHT22;44716;51.022;6.818;2024-02-23T05:36:42;20.00;61.00
58933;DHT22;44716;51.022;6.818;2024-02-23T05:39:07;20.00;61.00
58933;DHT22;44716;51.022;6.818;2024-02-23T05:41:35;20.00;61.20
58933;DHT22;44716;51.022;6.818;2024-02-23T05:44:01;19.90;61.40
58933;DHT22;44716;51.022;6.818;2024-02-23T05:46:31;19.90;61.70
58933;DHT22;44716;51.022;6.818;2024-02-23T05:48:57;19.90;61.70
58933;DHT22;44716;51.022;6.818;2024-02-23T05:51:22;20.00;61.60
58933;DHT22;44716;51.022;6.818;2024-02-23T05:53:48;20.00;61.60
58933;DHT22;44716;51.022;6.818;2024-02-23T05:56:13;20.10;61.60
58933;DHT22;44716;51.022;6.818;2024-02-23T05:58:39;20.10;61.60
58933;DHT22;44716;51.022;6.818;2024-02-23T06:01:05;20.10;61.60
58933;DHT22;44716;51.022;6.818;2024-02-23T06:03:30;20.20;61.60
58933;DHT22;44716;51.022;6.818;2024-02-23T06:05:56;20.20;61.60
58933;DHT22;44716;51.022;6.818;2024-02-23T06:08:21;20.20;61.60
58933;DHT22;44716;51.022;6.818;2024-02-23T06:10:47;20.20;61.70
58933;DHT22;44716;51.022;6.818;2024-02-23T06:13:13;20.30;61.60
58933;DHT22;44716;51.022;6.818;2024-02-23T06:15:38;20.20;61.50
58933;DHT22;44716;51.022;6.818;2024-02-23T06:18:04;20.30;61.50
58933;DHT22;44716;51.022;6.818;2024-02-23T06:20:29;20.30;61.40
58933;DHT22;44716;51.022;6.818;2024-02-23T06:22:55;20.30;61.50
58933;DHT22;44716;51.022;6.818;2024-02-23T06:25:21;20.30;61.60
58933;DHT22;44716;51.022;6.818;2024-02-23T06:27:46;20.30;61.50
58933;DHT22;44716;51.022;6.818;2024-02-23T06:30:11;20.20;61.40
58933;DHT22;44716;51.022;6.818;2024-02-23T06:32:37;20.30;61.40
58933;DHT22;44716;51.022;6.818;2024-02-23T06:35:02;20.30;61.50
58933;DHT22;44716;51.022;6.818;2024-02-23T06:37:28;20.30;61.50
58933;DHT22;44716;51.022;6.818;2024-02-23T06:39:54;20.20;61.50
58933;DHT22;44716;51.022;6.818;2024-02-23T06:42:20;20.20;61.50
58933;DHT22;44716;51.022;6.818;2024-02-23T06:44:45;20.20;61.60
58933;DHT22;44716;51.022;6.818;2024-02-23T06:47:11;20.20;61.50
58933;DHT22;44716;51.022;6.818;2024-02-23T06:49:40;20.20;61.60
58933;DHT22;44716;51.022;6.818;2024-02-23T06:52:06;20.20;61.60
58933;DHT22;44716;51.022;6.818;2024-02-23T06:54:31;20.20;61.60
58933;DHT22;44716;51.022;6.818;2024-02-23T06:56:57;20.20;61.60
58933;DHT22;44716;51.022;6.818;2024-02-23T06:59:23;20.20;61.60
58933;DHT22;44716;51.022;6.818;2024-02-23T07:01:49;20.20;61.60
58933;DHT22;44716;51.022;6.818;2024-02-23T07:04:15;20.30;61.40
58933;DHT22;44716;51.022;6.818;2024-02-23T07:06:41;20.30;61.50
58933;DHT22;44716;51.022;6.818;2024-02-23T07:09:06;20.30;61.40
58933;DHT22;44716;51.022;6.818;2024-02-23T07:11:32;20.30;61.40
58933;DHT22;44716;51.022;6.818;2024-02-23T07:13:57;20.30;61.40
58933;DHT22;44716;51.022;6.818;2024-02-23T07:16:22;20.30;61.40
58933;DHT22;44716;51.022;6.818;2024-02-23T07:18:48;20.30;61.60
58933;DHT22;44716;51.022;6.818;2024-02-23T07:21:13;20.30;61.20
58933;DHT22;44716;51.022;6.818;2024-02-23T07:23:41;20.30;61.30
58933;DHT22;44716;51.022;6.818;2024-02-23T07:26:07;20.30;61.40
58933;DHT22;44716;51.022;6.818;2024-02-23T07:28:32;20.30;61.40
58933;DHT22;44716;51.022;6.818;2024-02-23T07:30:58;20.30;61.40
58933;DHT22;44716;51.022;6.818;2024-02-23T07:33:24;20.30;61.20
58933;DHT22;44716;51.022;6.818;2024-02-23T07:35:49;20.30;61.40
58933;DHT22;44716;51.022;6.818;2024-02-23T07:38:15;20.50;61.40
58933;DHT22;44716;51.022;6.818;2024-02-23T07:40:40;20.50;61.20
58933;DHT22;44716;51.022;6.818;2024-02-23T07:43:06;20.50;61.80
58933;DHT22;44716;51.022;6.818;2024-02-23T07:45:32;20.60;61.00
58933;DHT22;44716;51.022;6.818;2024-02-23T07:48:03;20.50;61.00
58933;DHT22;44716;51.022;6.818;2024-02-23T07:50:29;20.50;60.80
58933;DHT22;44716;51.022;6.818;2024-02-23T07:52:54;20.50;60.70
58933;DHT22;44716;51.022;6.818;2024-02-23T07:55:20;20.50;60.70
58933;DHT22;44716;51.022;6.818;2024-02-23T07:57:45;20.50;60.70
58933;DHT22;44716;51.022;6.818;2024-02-23T08:00:11;20.50;60.70
58933;DHT22;44716;51.022;6.818;2024-02-23T08:02:37;20.50;60.80
58933;DHT22;44716;51.022;6.818;2024-02-23T08:05:03;20.50;60.80
58933;DHT22;44716;51.022;6.818;2024-02-23T08:07:29;20.50;60.70
58933;DHT22;44716;51.022;6.818;2024-02-23T08:09:56;20.50;60.80
58933;DHT22;44716;51.022;6.818;2024-02-23T08:12:22;20.50;60.80
58933;DHT22;44716;51.022;6.818;2024-02-23T08:14:48;20.50;60.80
58933;DHT22;44716;51.022;6.818;2024-02-23T08:17:15;20.50;60.90
58933;DHT22;44716;51.022;6.818;2024-02-23T08:19:41;20.40;60.70
58933;DHT22;44716;51.022;6.818;2024-02-23T08:22:07;20.40;60.80
58933;DHT22;44716;51.022;6.818;2024-02-23T08:24:32;20.40;60.70
58933;DHT22;44716;51.022;6.818;2024-02-23T08:26:58;20.40;60.80
58933;DHT22;44716;51.022;6.818;2024-02-23T08:29:23;20.40;60.80
58933;DHT22;44716;51.022;6.818;2024-02-23T08:31:49;20.40;60.80
58933;DHT22;44716;51.022;6.818;2024-02-23T08:34:14;20.40;60.70
58933;DHT22;44716;51.022;6.818;2024-02-23T08:36:40;20.40;60.70
58933;DHT22;44716;51.022;6.818;2024-02-23T08:39:05;20.40;60.80
58933;DHT22;44716;51.022;6.818;2024-02-23T08:41:31;20.40;60.70
58933;DHT22;44716;51.022;6.818;2024-02-23T08:43:56;20.40;60.80
58933;DHT22;44716;51.022;6.818;2024-02-23T08:46:22;20.40;60.80
58933;DHT22;44716;51.022;6.818;2024-02-23T08:48:48;20.40;60.80
58933;DHT22;44716;51.022;6.818;2024-02-23T08:51:13;20.30;60.80
58933;DHT22;44716;51.022;6.818;2024-02-23T08:53:39;20.40;60.80
58933;DHT22;44716;51.022;6.818;2024-02-23T08:56:06;20.40;60.90
58933;DHT22;44716;51.022;6.818;2024-02-23T08:58:31;20.40;60.90
58933;DHT22;44716;51.022;6.818;2024-02-23T09:00:57;20.30;60.80
58933;DHT22;44716;51.022;6.818;2024-02-23T09:03:23;20.40;60.80
58933;DHT22;44716;51.022;6.818;2024-02-23T09:05:48;20.30;60.80
58933;DHT22;44716;51.022;6.818;2024-02-23T09:08:13;20.30;60.80
58933;DHT22;44716;51.022;6.818;2024-02-23T09:10:39;20.30;60.90
58933;DHT22;44716;51.022;6.818;2024-02-23T09:13:05;20.30;60.80
58933;DHT22;44716;51.022;6.818;2024-02-23T09:15:30;20.30;60.80
58933;DHT22;44716;51.022;6.818;2024-02-23T09:17:56;20.30;60.80
58933;DHT22;44716;51.022;6.818;2024-02-23T09:20:22;20.30;60.80
58933;DHT22;44716;51.022;6.818;2024-02-23T09:22:48;20.40;60.70
58933;DHT22;44716;51.022;6.818;2024-02-23T09:25:14;20.40;60.80
58933;DHT22;44716;51.022;6.818;2024-02-23T09:27:39;20.30;60.80
58933;DHT22;44716;51.022;6.818;2024-02-23T09:30:12;20.30;60.80
58933;DHT22;44716;51.022;6.818;2024-02-23T09:32:37;20.30;60.80
58933;DHT22;44716;51.022;6.818;2024-02-23T09:35:03;20.30;60.80
58933;DHT22;44716;51.022;6.818;2024-02-23T09:37:29;20.30;60.80
58933;DHT22;44716;51.022;6.818;2024-02-23T09:39:54;20.30;60.80
58933;DHT22;44716;51.022;6.818;2024-02-23T09:42:20;20.30;60.80
58933;DHT22;44716;51.022;6.818;2024-02-23T09:44:48;20.30;60.80
58933;DHT22;44716;51.022;6.818;2024-02-23T09:47:15;20.30;60.80
58933;DHT22;44716;51.022;6.818;2024-02-23T09:49:40;20.30;60.80
58933;DHT22;44716;51.022;6.818;2024-02-23T09:52:09;20.30;60.80
58933;DHT22;44716;51.022;6.818;2024-02-23T09:54:38;20.30;60.80
58933;DHT22;44716;51.022;6.818;2024-02-23T09:57:05;20.30;61.00
58933;DHT22;44716;51.022;6.818;2024-02-23T09:59:32;20.30;60.90
58933;DHT22;44716;51.022;6.818;2024-02-23T10:01:59;20.30;60.90
58933;DHT22;44716;51.022;6.818;2024-02-23T10:04:25;20.30;60.80
58933;DHT22;44716;51.022;6.818;2024-02-23T10:06:52;20.30;60.90
58933;DHT22;44716;51.022;6.818;2024-02-23T10:09:17;20.30;60.80
58933;DHT22;44716;51.022;6.818;2024-02-23T10:11:44;20.30;60.80
58933;DHT22;44716;51.022;6.818;2024-02-23T10:14:10;20.30;60.90
58933;DHT22;44716;51.022;6.818;2024-02-23T10:16:36;20.30;60.80
58933;DHT22;44716;51.022;6.818;2024-02-23T10:19:01;20.30;60.80
58933;DHT22;44716;51.022;6.818;2024-02-23T10:21:28;20.30;60.80
58933;DHT22;44716;51.022;6.818;2024-02-23T10:23:53;20.30;60.90
58933;DHT22;44716;51.022;6.818;2024-02-23T10:26:20;20.30;61.00
58933;DHT22;44716;51.022;6.818;2024-02-23T10:28:47;20.30;60.80
58933;DHT22;44716;51.022;6.818;2024-02-23T10:31:13;20.30;60.90
58933;DHT22;44716;51.022;6.818;2024-02-23T10:33:39;20.30;61.00
58933;DHT22;44716;51.022;6.818;2024-02-23T10:36:05;20.30;60.90
58933;DHT22;44716;51.022;6.818;2024-02-23T10:38:33;20.30;60.90
58933;DHT22;44716;51.022;6.818;2024-02-23T10:41:01;20.30;60.80
58933;DHT22;44716;51.022;6.818;2024-02-23T10:43:33;20.30;60.80
58933;DHT22;44716;51.022;6.818;2024-02-23T10:45:59;20.30;60.80
58933;DHT22;44716;51.022;6.818;2024-02-23T10:48:28;20.30;61.70
58933;DHT22;44716;51.022;6.818;2024-02-23T10:50:53;20.30;60.80
58933;DHT22;44716;51.022;6.818;2024-02-23T10:53:20;20.30;60.80
58933;DHT22;44716;51.022;6.818;2024-02-23T10:55:46;20.30;60.80
58933;DHT22;44716;51.022;6.818;2024-02-23T10:58:12;20.30;60.80
58933;DHT22;44716;51.022;6.818;2024-02-23T11:00:39;20.30;60.80
58933;DHT22;44716;51.022;6.818;2024-02-23T11:03:04;20.30;60.80
58933;DHT22;44716;51.022;6.818;2024-02-23T11:05:32;20.30;60.80
58933;DHT22;44716;51.022;6.818;2024-02-23T11:07:57;20.30;60.80
58933;DHT22;44716;51.022;6.818;2024-02-23T11:10:23;20.20;60.80
58933;DHT22;44716;51.022;6.818;2024-02-23T11:13:07;20.30;60.90
58933;DHT22;44716;51.022;6.818;2024-02-23T11:15:32;20.30;60.90
58933;DHT22;44716;51.022;6.818;2024-02-23T11:18:20;20.20;60.90
58933;DHT22;44716;51.022;6.818;2024-02-23T11:20:52;20.30;60.90
58933;DHT22;44716;51.022;6.818;2024-02-23T11:23:18;20.30;60.80
58933;DHT22;44716;51.022;6.818;2024-02-23T11:25:58;20.30;61.00
58933;DHT22;44716;51.022;6.818;2024-02-23T11:28:26;20.20;60.80
58933;DHT22;44716;51.022;6.818;2024-02-23T11:30:52;20.30;60.80
58933;DHT22;44716;51.022;6.818;2024-02-23T11:33:34;20.30;60.80
58933;DHT22;44716;51.022;6.818;2024-02-23T11:36:06;20.30;60.80
58933;DHT22;44716;51.022;6.818;2024-02-23T11:38:32;20.30;60.80
58933;DHT22;44716;51.022;6.818;2024-02-23T11:40:59;20.30;60.70
58933;DHT22;44716;51.022;6.818;2024-02-23T11:43:25;20.30;60.80
58933;DHT22;44716;51.022;6.818;2024-02-23T11:45:50;20.30;60.80
58933;DHT22;44716;51.022;6.818;2024-02-23T11:48:16;20.30;60.70
58933;DHT22;44716;51.022;6.818;2024-02-23T11:50:42;20.30;60.70
58933;DHT22;44716;51.022;6.818;2024-02-23T11:53:08;20.40;60.70
58933;DHT22;44716;51.022;6.818;2024-02-23T11:55:33;20.40;60.70
58933;DHT22;44716;51.022;6.818;2024-02-23T11:57:59;20.30;60.60
58933;DHT22;44716;51.022;6.818;2024-02-23T12:00:25;20.40;60.70
58933;DHT22;44716;51.022;6.818;2024-02-23T12:02:51;20.30;60.70
58933;DHT22;44716;51.022;6.818;2024-02-23T12:05:17;20.30;60.70
58933;DHT22;44716;51.022;6.818;2024-02-23T12:07:42;20.30;60.60
58933;DHT22;44716;51.022;6.818;2024-02-23T12:10:08;20.30;60.60
58933;DHT22;44716;51.022;6.818;2024-02-23T12:12:34;20.30;60.60
58933;DHT22;44716;51.022;6.818;2024-02-23T12:14:59;20.30;60.70
58933;DHT22;44716;51.022;6.818;2024-02-23T12:17:25;20.30;60.60
58933;DHT22;44716;51.022;6.818;2024-02-23T12:20:01;20.30;60.70
58933;DHT22;44716;51.022;6.818;2024-02-23T12:22:27;20.30;60.70
58933;DHT22;44716;51.022;6.818;2024-02-23T12:24:56;20.30;60.70
58933;DHT22;44716;51.022;6.818;2024-02-23T12:27:22;20.30;60.70
58933;DHT22;44716;51.022;6.818;2024-02-23T12:29:56;20.30;60.70
58933;DHT22;44716;51.022;6.818;2024-02-23T12:32:22;20.30;60.70
58933;DHT22;44716;51.022;6.818;2024-02-23T12:34:47;20.30;60.90
58933;DHT22;44716;51.022;6.818;2024-02-23T12:37:16;20.30;60.70
58933;DHT22;44716;51.022;6.818;2024-02-23T12:39:42;20.30;60.70
58933;DHT22;44716;51.022;6.818;2024-02-23T12:42:08;20.30;60.70
58933;DHT22;44716;51.022;6.818;2024-02-23T12:44:34;20.30;60.70
58933;DHT22;44716;51.022;6.818;2024-02-23T12:46:59;20.40;60.70
58933;DHT22;44716;51.022;6.818;2024-02-23T12:49:25;20.40;60.60
58933;DHT22;44716;51.022;6.818;2024-02-23T12:51:50;20.40;60.50
58933;DHT22;44716;51.022;6.818;2024-02-23T12:54:16;20.40;60.50
58933;DHT22;44716;51.022;6.818;2024-02-23T12:56:41;20.40;60.40
58933;DHT22;44716;51.022;6.818;2024-02-23T12:59:07;20.40;60.50
58933;DHT22;44716;51.022;6.818;2024-02-23T13:01:35;20.40;60.50
58933;DHT22;44716;51.022;6.818;2024-02-23T13:04:03;20.40;60.40
58933;DHT22;44716;51.022;6.818;2024-02-23T13:06:28;20.40;60.40
58933;DHT22;44716;51.022;6.818;2024-02-23T13:08:54;20.50;60.40
58933;DHT22;44716;51.022;6.818;2024-02-23T13:11:19;20.50;60.30
58933;DHT22;44716;51.022;6.818;2024-02-23T13:13:45;20.50;60.30
58933;DHT22;44716;51.022;6.818;2024-02-23T13:16:10;20.50;60.30
58933;DHT22;44716;51.022;6.818;2024-02-23T13:18:36;20.50;60.30
58933;DHT22;44716;51.022;6.818;2024-02-23T13:21:02;20.40;60.30
58933;DHT22;44716;51.022;6.818;2024-02-23T13:23:28;20.50;60.40
58933;DHT22;44716;51.022;6.818;2024-02-23T13:25:54;20.40;60.40
58933;DHT22;44716;51.022;6.818;2024-02-23T13:28:19;20.40;60.30
58933;DHT22;44716;51.022;6.818;2024-02-23T13:30:45;20.50;60.40
58933;DHT22;44716;51.022;6.818;2024-02-23T13:33:10;20.40;60.40
58933;DHT22;44716;51.022;6.818;2024-02-23T13:35:36;20.40;60.30
58933;DHT22;44716;51.022;6.818;2024-02-23T13:38:02;20.40;60.30
58933;DHT22;44716;51.022;6.818;2024-02-23T13:40:29;20.50;60.30
58933;DHT22;44716;51.022;6.818;2024-02-23T13:42:55;20.50;60.30
58933;DHT22;44716;51.022;6.818;2024-02-23T13:45:20;20.50;60.30
58933;DHT22;44716;51.022;6.818;2024-02-23T13:48:01;20.40;60.20
58933;DHT22;44716;51.022;6.818;2024-02-23T13:50:27;20.40;60.30
58933;DHT22;44716;51.022;6.818;2024-02-23T13:52:53;20.40;60.30
58933;DHT22;44716;51.022;6.818;2024-02-23T13:55:18;20.40;60.30
58933;DHT22;44716;51.022;6.818;2024-02-23T13:57:46;20.40;60.30
58933;DHT22;44716;51.022;6.818;2024-02-23T14:00:12;20.40;60.50
58933;DHT22;44716;51.022;6.818;2024-02-23T14:02:38;20.40;60.40
58933;DHT22;44716;51.022;6.818;2024-02-23T14:05:06;20.40;60.30
58933;DHT22;44716;51.022;6.818;2024-02-23T14:07:32;20.40;60.30
58933;DHT22;44716;51.022;6.818;2024-02-23T14:09:58;20.40;60.50
58933;DHT22;44716;51.022;6.818;2024-02-23T14:12:24;20.50;60.30
58933;DHT22;44716;51.022;6.818;2024-02-23T14:14:49;20.40;60.30
58933;DHT22;44716;51.022;6.818;2024-02-23T14:17:15;20.40;60.30
58933;DHT22;44716;51.022;6.818;2024-02-23T14:19:40;20.40;61.20
58933;DHT22;44716;51.022;6.818;2024-02-23T14:22:06;20.40;60.30
58933;DHT22;44716;51.022;6.818;2024-02-23T14:24:32;20.50;60.30
58933;DHT22;44716;51.022;6.818;2024-02-23T14:26:58;20.50;60.00
58933;DHT22;44716;51.022;6.818;2024-02-23T14:29:24;20.60;60.10
58933;DHT22;44716;51.022;6.818;2024-02-23T14:31:49;20.60;59.90
58933;DHT22;44716;51.022;6.818;2024-02-23T14:34:15;20.70;60.10
58933;DHT22;44716;51.022;6.818;2024-02-23T14:36:40;20.80;59.90
58933;DHT22;44716;51.022;6.818;2024-02-23T14:39:06;20.80;60.00
58933;DHT22;44716;51.022;6.818;2024-02-23T14:41:31;20.90;59.50
58933;DHT22;44716;51.022;6.818;2024-02-23T14:43:57;21.00;59.40
58933;DHT22;44716;51.022;6.818;2024-02-23T14:46:22;21.10;59.10
58933;DHT22;44716;51.022;6.818;2024-02-23T14:48:48;21.10;58.80
58933;DHT22;44716;51.022;6.818;2024-02-23T14:51:14;21.30;58.40
58933;DHT22;44716;51.022;6.818;2024-02-23T14:53:40;21.40;58.20
58933;DHT22;44716;51.022;6.818;2024-02-23T14:56:06;21.50;58.00
58933;DHT22;44716;51.022;6.818;2024-02-23T14:58:31;21.50;57.70
58933;DHT22;44716;51.022;6.818;2024-02-23T15:00:57;21.60;57.60
58933;DHT22;44716;51.022;6.818;2024-02-23T15:03:22;21.60;57.30
58933;DHT22;44716;51.022;6.818;2024-02-23T15:05:48;21.70;57.10
58933;DHT22;44716;51.022;6.818;2024-02-23T15:08:13;21.70;57.00
58933;DHT22;44716;51.022;6.818;2024-02-23T15:10:39;21.80;56.80
58933;DHT22;44716;51.022;6.818;2024-02-23T15:13:04;21.80;56.70
58933;DHT22;44716;51.022;6.818;2024-02-23T15:15:30;21.90;56.60
58933;DHT22;44716;51.022;6.818;2024-02-23T15:17:56;21.90;56.40
58933;DHT22;44716;51.022;6.818;2024-02-23T15:20:21;21.90;56.50
58933;DHT22;44716;51.022;6.818;2024-02-23T15:22:47;22.00;56.30